sensor_id;sensor_type;location;lat;lon;timestamp;pressure;altitude;pressure_sealevel;temperature;humidity
36248;BME280;22287;50.824;5.644;2023-03-19T00:00:27;100310.84;;;13.59;63.76
36248;BME280;22287;50.824;5.644;2023-03-19T00:02:54;100305.19;;;13.27;64.59
36248;BME280;22287;50.824;5.644;2023-03-19T00:05:21;100315.13;;;13.01;65.90
36248;BME280;22287;50.824;5.644;2023-03-19T00:07:48;100313.56;;;13.16;65.51
36248;BME280;22287;50.824;5.644;2023-03-19T00:10:15;100317.41;;;12.95;65.96
36248;BME280;22287;50.824;5.644;2023-03-19T00:12:42;100307.06;;;13.09;66.04
36248;BME280;22287;50.824;5.644;2023-03-19T00:15:09;100311.22;;;13.21;65.66
36248;BME280;22287;50.824;5.644;2023-03-19T00:17:42;100311.84;;;13.15;65.54
36248;BME280;22287;50.824;5.644;2023-03-19T00:20:11;100317.19;;;13.24;65.69
36248;BME280;22287;50.824;5.644;2023-03-19T00:22:41;100307.16;;;13.17;66.00
36248;BME280;22287;50.824;5.644;2023-03-19T00:25:08;100312.44;;;13.44;65.18
36248;BME280;22287;50.824;5.644;2023-03-19T00:27:36;100313.09;;;13.03;66.73
36248;BME280;22287;50.824;5.644;2023-03-19T00:30:05;100315.78;;;13.20;66.01
36248;BME280;22287;50.824;5.644;2023-03-19T00:32:33;100307.84;;;13.19;66.00
36248;BME280;22287;50.824;5.644;2023-03-19T00:35:01;100310.88;;;13.67;64.75
36248;BME280;22287;50.824;5.644;2023-03-19T00:37:29;100318.50;;;13.38;65.66
36248;BME280;22287;50.824;5.644;2023-03-19T00:39:56;100319.13;;;13.32;65.99
36248;BME280;22287;50.824;5.644;2023-03-19T00:42:23;100318.19;;;13.23;66.15
36248;BME280;22287;50.824;5.644;2023-03-19T00:44:50;100323.72;;;13.14;66.72
36248;BME280;22287;50.824;5.644;2023-03-19T00:47:16;100325.81;;;13.20;66.57
36248;BME280;22287;50.824;5.644;2023-03-19T00:49:43;100337.00;;;13.17;66.97
36248;BME280;22287;50.824;5.644;2023-03-19T00:52:10;100332.44;;;12.90;67.34
36248;BME280;22287;50.824;5.644;2023-03-19T00:54:38;100335.63;;;12.85;67.98
36248;BME280;22287;50.824;5.644;2023-03-19T00:57:06;100332.00;;;12.59;68.78
36248;BME280;22287;50.824;5.644;2023-03-19T00:59:33;100333.78;;;12.41;69.80
36248;BME280;22287;50.824;5.644;2023-03-19T01:02:01;100329.72;;;12.55;69.58
36248;BME280;22287;50.824;5.644;2023-03-19T01:04:29;100335.88;;;12.74;69.05
36248;BME280;22287;50.824;5.644;2023-03-19T01:06:56;100340.72;;;12.71;69.74
36248;BME280;22287;50.824;5.644;2023-03-19T01:09:25;100330.16;;;12.95;68.56
36248;BME280;22287;50.824;5.644;2023-03-19T01:11:52;100324.31;;;12.90;68.80
36248;BME280;22287;50.824;5.644;2023-03-19T01:14:19;100331.00;;;12.33;70.68
36248;BME280;22287;50.824;5.644;2023-03-19T01:16:46;100325.78;;;12.22;71.36
36248;BME280;22287;50.824;5.644;2023-03-19T01:19:13;100332.28;;;12.74;69.63
36248;BME280;22287;50.824;5.644;2023-03-19T01:21:42;100326.63;;;12.85;68.88
36248;BME280;22287;50.824;5.644;2023-03-19T01:24:15;100324.41;;;12.80;68.89
36248;BME280;22287;50.824;5.644;2023-03-19T01:26:43;100326.50;;;12.86;68.78
36248;BME280;22287;50.824;5.644;2023-03-19T01:29:24;100325.41;;;12.79;69.15
36248;BME280;22287;50.824;5.644;2023-03-19T01:31:53;100328.19;;;12.87;68.84
36248;BME280;22287;50.824;5.644;2023-03-19T01:34:38;100329.38;;;13.03;68.35
36248;BME280;22287;50.824;5.644;2023-03-19T01:37:08;100331.06;;;13.04;67.93
36248;BME280;22287;50.824;5.644;2023-03-19T01:39:36;100328.06;;;12.89;68.72
36248;BME280;22287;50.824;5.644;2023-03-19T01:42:06;100339.91;;;13.06;67.96
36248;BME280;22287;50.824;5.644;2023-03-19T01:44:57;100330.91;;;13.05;67.63
36248;BME280;22287;50.824;5.644;2023-03-19T01:47:29;100329.97;;;12.96;67.83
36248;BME280;22287;50.824;5.644;2023-03-19T01:50:33;100325.78;;;12.84;68.13
36248;BME280;22287;50.824;5.644;2023-03-19T01:53:30;100326.03;;;12.91;67.91
36248;BME280;22287;50.824;5.644;2023-03-19T01:56:11;100321.47;;;12.91;67.69
36248;BME280;22287;50.824;5.644;2023-03-19T01:59:03;100323.56;;;12.98;67.11
36248;BME280;22287;50.824;5.644;2023-03-19T02:01:51;100317.03;;;12.90;67.26
36248;BME280;22287;50.824;5.644;2023-03-19T02:04:21;100322.47;;;12.90;67.48
36248;BME280;22287;50.824;5.644;2023-03-19T02:06:48;100326.94;;;12.82;67.69
36248;BME280;22287;50.824;5.644;2023-03-19T02:09:15;100316.97;;;12.82;67.70
36248;BME280;22287;50.824;5.644;2023-03-19T02:11:44;100320.44;;;12.92;67.58
36248;BME280;22287;50.824;5.644;2023-03-19T02:14:12;100324.63;;;13.05;67.28
36248;BME280;22287;50.824;5.644;2023-03-19T02:16:39;100329.03;;;12.88;67.57
36248;BME280;22287;50.824;5.644;2023-03-19T02:19:09;100326.19;;;12.89;67.73
36248;BME280;22287;50.824;5.644;2023-03-19T02:21:39;100326.94;;;12.82;67.93
36248;BME280;22287;50.824;5.644;2023-03-19T02:26:57;100326.34;;;12.43;69.50
36248;BME280;22287;50.824;5.644;2023-03-19T02:29:26;100324.25;;;12.64;68.85
36248;BME280;22287;50.824;5.644;2023-03-19T02:31:56;100320.59;;;12.56;69.11
36248;BME280;22287;50.824;5.644;2023-03-19T02:36:53;100321.75;;;12.53;70.11
36248;BME280;22287;50.824;5.644;2023-03-19T02:42:02;100321.97;;;12.42;70.75
36248;BME280;22287;50.824;5.644;2023-03-19T02:44:30;100324.84;;;12.58;70.54
36248;BME280;22287;50.824;5.644;2023-03-19T02:46:57;100331.19;;;12.49;70.65
36248;BME280;22287;50.824;5.644;2023-03-19T02:49:25;100330.00;;;12.52;70.91
36248;BME280;22287;50.824;5.644;2023-03-19T02:51:52;100328.78;;;12.19;72.64
36248;BME280;22287;50.824;5.644;2023-03-19T02:54:21;100331.34;;;12.65;70.68
36248;BME280;22287;50.824;5.644;2023-03-19T02:56:48;100330.63;;;12.46;71.57
36248;BME280;22287;50.824;5.644;2023-03-19T02:59:18;100329.78;;;12.18;72.67
36248;BME280;22287;50.824;5.644;2023-03-19T03:01:44;100331.88;;;11.97;74.02
36248;BME280;22287;50.824;5.644;2023-03-19T03:04:11;100325.56;;;12.33;72.76
36248;BME280;22287;50.824;5.644;2023-03-19T03:06:43;100333.59;;;12.25;73.02
36248;BME280;22287;50.824;5.644;2023-03-19T03:09:11;100330.75;;;12.54;72.13
36248;BME280;22287;50.824;5.644;2023-03-19T03:11:38;100329.47;;;12.21;73.19
36248;BME280;22287;50.824;5.644;2023-03-19T03:14:08;100332.81;;;12.60;71.83
36248;BME280;22287;50.824;5.644;2023-03-19T03:16:35;100338.81;;;12.09;73.47
36248;BME280;22287;50.824;5.644;2023-03-19T03:19:04;100335.63;;;12.23;73.49
36248;BME280;22287;50.824;5.644;2023-03-19T03:21:32;100340.09;;;12.05;73.83
36248;BME280;22287;50.824;5.644;2023-03-19T03:24:02;100341.22;;;12.12;74.62
36248;BME280;22287;50.824;5.644;2023-03-19T03:26:29;100336.03;;;12.28;73.79
36248;BME280;22287;50.824;5.644;2023-03-19T03:28:56;100342.84;;;12.59;73.04
36248;BME280;22287;50.824;5.644;2023-03-19T03:31:23;100343.53;;;12.79;72.26
36248;BME280;22287;50.824;5.644;2023-03-19T03:34:09;100344.47;;;12.87;71.51
36248;BME280;22287;50.824;5.644;2023-03-19T03:36:36;100342.53;;;12.08;74.50
36248;BME280;22287;50.824;5.644;2023-03-19T03:39:03;100337.84;;;12.55;72.94
36248;BME280;22287;50.824;5.644;2023-03-19T03:41:30;100338.03;;;12.71;71.78
36248;BME280;22287;50.824;5.644;2023-03-19T03:43:58;100345.50;;;12.86;71.42
36248;BME280;22287;50.824;5.644;2023-03-19T03:46:25;100342.44;;;12.72;72.03
36248;BME280;22287;50.824;5.644;2023-03-19T03:48:52;100345.84;;;12.56;72.84
36248;BME280;22287;50.824;5.644;2023-03-19T03:51:20;100347.00;;;12.26;73.98
36248;BME280;22287;50.824;5.644;2023-03-19T03:53:47;100351.00;;;12.50;73.10
36248;BME280;22287;50.824;5.644;2023-03-19T03:56:14;100356.25;;;12.51;73.07
36248;BME280;22287;50.824;5.644;2023-03-19T03:58:42;100358.94;;;12.33;73.89
36248;BME280;22287;50.824;5.644;2023-03-19T04:01:16;100355.13;;;12.54;73.75
36248;BME280;22287;50.824;5.644;2023-03-19T04:03:47;100357.13;;;12.24;73.70
36248;BME280;22287;50.824;5.644;2023-03-19T04:06:16;100359.63;;;12.08;75.06
36248;BME280;22287;50.824;5.644;2023-03-19T04:08:47;100366.47;;;12.67;72.88
36248;BME280;22287;50.824;5.644;2023-03-19T04:11:15;100365.47;;;12.41;73.63
36248;BME280;22287;50.824;5.644;2023-03-19T04:13:42;100365.09;;;12.80;72.06
36248;BME280;22287;50.824;5.644;2023-03-19T04:16:09;100362.94;;;12.29;73.98
36248;BME280;22287;50.824;5.644;2023-03-19T04:18:37;100368.72;;;12.71;72.18
36248;BME280;22287;50.824;5.644;2023-03-19T04:21:04;100363.00;;;12.92;71.87
36248;BME280;22287;50.824;5.644;2023-03-19T04:23:32;100370.13;;;12.75;71.25
36248;BME280;22287;50.824;5.644;2023-03-19T04:26:03;100368.16;;;12.68;72.98
36248;BME280;22287;50.824;5.644;2023-03-19T04:28:32;100359.94;;;12.32;74.21
36248;BME280;22287;50.824;5.644;2023-03-19T04:31:05;100359.72;;;12.71;72.97
36248;BME280;22287;50.824;5.644;2023-03-19T04:33:36;100365.81;;;13.00;71.49
36248;BME280;22287;50.824;5.644;2023-03-19T04:36:03;100362.38;;;12.98;71.37
36248;BME280;22287;50.824;5.644;2023-03-19T04:38:30;100367.09;;;12.96;71.58
36248;BME280;22287;50.824;5.644;2023-03-19T04:40:57;100370.63;;;12.79;72.47
36248;BME280;22287;50.824;5.644;2023-03-19T04:43:25;100364.41;;;12.51;73.84
36248;BME280;22287;50.824;5.644;2023-03-19T04:45:52;100370.06;;;13.03;71.79
36248;BME280;22287;50.824;5.644;2023-03-19T04:48:21;100370.25;;;12.74;71.92
36248;BME280;22287;50.824;5.644;2023-03-19T04:50:50;100364.78;;;12.83;72.54
36248;BME280;22287;50.824;5.644;2023-03-19T04:53:19;100373.56;;;12.50;73.14
36248;BME280;22287;50.824;5.644;2023-03-19T04:55:47;100380.41;;;12.72;72.88
36248;BME280;22287;50.824;5.644;2023-03-19T04:58:16;100377.84;;;12.70;72.34
36248;BME280;22287;50.824;5.644;2023-03-19T05:00:48;100379.19;;;12.39;74.41
36248;BME280;22287;50.824;5.644;2023-03-19T05:03:19;100380.22;;;12.56;74.08
36248;BME280;22287;50.824;5.644;2023-03-19T05:05:47;100387.91;;;12.33;74.14
36248;BME280;22287;50.824;5.644;2023-03-19T05:08:15;100384.19;;;12.61;73.27
36248;BME280;22287;50.824;5.644;2023-03-19T05:10:42;100381.09;;;12.74;72.90
36248;BME280;22287;50.824;5.644;2023-03-19T05:13:09;100385.41;;;12.94;71.87
36248;BME280;22287;50.824;5.644;2023-03-19T05:15:42;100391.97;;;12.91;71.82
36248;BME280;22287;50.824;5.644;2023-03-19T05:18:11;100391.81;;;12.75;72.58
36248;BME280;22287;50.824;5.644;2023-03-19T05:20:42;100397.75;;;12.79;72.19
36248;BME280;22287;50.824;5.644;2023-03-19T05:23:16;100401.50;;;12.78;72.53
36248;BME280;22287;50.824;5.644;2023-03-19T05:26:04;100399.81;;;12.94;71.75
36248;BME280;22287;50.824;5.644;2023-03-19T05:29:10;100402.75;;;12.83;71.77
36248;BME280;22287;50.824;5.644;2023-03-19T05:31:50;100398.63;;;12.79;71.94
36248;BME280;22287;50.824;5.644;2023-03-19T05:34:18;100399.44;;;12.62;71.77
36248;BME280;22287;50.824;5.644;2023-03-19T05:36:46;100396.94;;;12.78;71.63
36248;BME280;22287;50.824;5.644;2023-03-19T05:39:28;100401.72;;;12.84;71.96
36248;BME280;22287;50.824;5.644;2023-03-19T05:42:09;100399.84;;;12.67;72.49
36248;BME280;22287;50.824;5.644;2023-03-19T05:44:37;100406.91;;;12.78;72.51
36248;BME280;22287;50.824;5.644;2023-03-19T05:47:22;100404.84;;;12.89;72.00
36248;BME280;22287;50.824;5.644;2023-03-19T05:49:53;100416.72;;;13.06;71.59
36248;BME280;22287;50.824;5.644;2023-03-19T05:52:20;100414.69;;;12.90;71.67
36248;BME280;22287;50.824;5.644;2023-03-19T05:54:48;100424.84;;;12.88;72.19
36248;BME280;22287;50.824;5.644;2023-03-19T05:57:38;100419.88;;;12.84;71.80
36248;BME280;22287;50.824;5.644;2023-03-19T06:00:13;100425.50;;;12.73;73.27
36248;BME280;22287;50.824;5.644;2023-03-19T06:02:41;100430.19;;;12.98;71.79
36248;BME280;22287;50.824;5.644;2023-03-19T06:05:29;100429.00;;;12.83;72.33
36248;BME280;22287;50.824;5.644;2023-03-19T06:08:05;100428.50;;;12.97;72.04
36248;BME280;22287;50.824;5.644;2023-03-19T06:10:51;100431.66;;;12.92;72.11
36248;BME280;22287;50.824;5.644;2023-03-19T06:13:18;100431.38;;;12.41;75.02
36248;BME280;22287;50.824;5.644;2023-03-19T06:16:17;100438.31;;;12.80;74.13
36248;BME280;22287;50.824;5.644;2023-03-19T06:18:53;100442.97;;;12.88;74.02
36248;BME280;22287;50.824;5.644;2023-03-19T06:21:22;100444.03;;;12.77;73.65
36248;BME280;22287;50.824;5.644;2023-03-19T06:23:51;100445.19;;;12.75;73.95
36248;BME280;22287;50.824;5.644;2023-03-19T06:26:26;100444.06;;;12.68;74.22
36248;BME280;22287;50.824;5.644;2023-03-19T06:28:56;100444.88;;;12.78;73.93
36248;BME280;22287;50.824;5.644;2023-03-19T06:31:23;100450.31;;;12.78;73.66
36248;BME280;22287;50.824;5.644;2023-03-19T06:33:57;100441.88;;;12.81;74.57
36248;BME280;22287;50.824;5.644;2023-03-19T06:36:44;100452.97;;;12.60;75.70
36248;BME280;22287;50.824;5.644;2023-03-19T06:39:14;100457.78;;;12.29;77.63
36248;BME280;22287;50.824;5.644;2023-03-19T06:41:42;100455.47;;;12.34;77.22
36248;BME280;22287;50.824;5.644;2023-03-19T06:44:13;100458.78;;;12.92;74.89
36248;BME280;22287;50.824;5.644;2023-03-19T06:46:40;100463.56;;;12.54;76.67
36248;BME280;22287;50.824;5.644;2023-03-19T06:49:07;100466.59;;;12.78;76.09
36248;BME280;22287;50.824;5.644;2023-03-19T06:51:34;100470.03;;;12.98;75.34
36248;BME280;22287;50.824;5.644;2023-03-19T06:54:01;100472.41;;;12.46;77.24
36248;BME280;22287;50.824;5.644;2023-03-19T06:56:28;100472.59;;;12.45;77.32
36248;BME280;22287;50.824;5.644;2023-03-19T06:58:55;100476.91;;;12.65;76.97
36248;BME280;22287;50.824;5.644;2023-03-19T07:01:22;100475.03;;;12.65;76.63
36248;BME280;22287;50.824;5.644;2023-03-19T07:03:49;100472.81;;;12.51;77.08
36248;BME280;22287;50.824;5.644;2023-03-19T07:06:17;100467.66;;;12.85;76.29
36248;BME280;22287;50.824;5.644;2023-03-19T07:08:43;100470.38;;;12.58;77.59
36248;BME280;22287;50.824;5.644;2023-03-19T07:11:13;100474.31;;;12.73;76.63
36248;BME280;22287;50.824;5.644;2023-03-19T07:13:42;100475.13;;;12.83;75.84
36248;BME280;22287;50.824;5.644;2023-03-19T07:16:08;100480.47;;;12.65;77.37
36248;BME280;22287;50.824;5.644;2023-03-19T07:18:35;100485.28;;;12.71;77.09
36248;BME280;22287;50.824;5.644;2023-03-19T07:21:02;100485.28;;;12.44;77.83
36248;BME280;22287;50.824;5.644;2023-03-19T07:23:29;100488.38;;;12.59;77.92
36248;BME280;22287;50.824;5.644;2023-03-19T07:25:56;100491.66;;;12.89;76.36
36248;BME280;22287;50.824;5.644;2023-03-19T07:28:23;100491.41;;;12.73;76.29
36248;BME280;22287;50.824;5.644;2023-03-19T07:30:51;100495.06;;;12.64;77.79
36248;BME280;22287;50.824;5.644;2023-03-19T07:33:19;100495.88;;;12.65;78.06
36248;BME280;22287;50.824;5.644;2023-03-19T07:35:47;100493.84;;;13.31;75.37
36248;BME280;22287;50.824;5.644;2023-03-19T07:38:14;100492.53;;;12.80;77.70
36248;BME280;22287;50.824;5.644;2023-03-19T07:40:41;100497.06;;;12.89;77.21
36248;BME280;22287;50.824;5.644;2023-03-19T07:43:20;100490.72;;;12.98;77.53
36248;BME280;22287;50.824;5.644;2023-03-19T07:45:47;100495.06;;;12.91;77.80
36248;BME280;22287;50.824;5.644;2023-03-19T07:48:14;100499.50;;;13.20;76.73
36248;BME280;22287;50.824;5.644;2023-03-19T07:50:41;100497.41;;;13.31;77.21
36248;BME280;22287;50.824;5.644;2023-03-19T07:53:08;100499.97;;;13.33;76.41
36248;BME280;22287;50.824;5.644;2023-03-19T07:55:35;100489.25;;;13.14;77.22
36248;BME280;22287;50.824;5.644;2023-03-19T07:58:03;100499.50;;;13.20;76.99
36248;BME280;22287;50.824;5.644;2023-03-19T08:00:30;100507.06;;;12.89;78.32
36248;BME280;22287;50.824;5.644;2023-03-19T08:02:58;100507.41;;;13.31;77.55
36248;BME280;22287;50.824;5.644;2023-03-19T08:05:24;100508.06;;;13.15;77.36
36248;BME280;22287;50.824;5.644;2023-03-19T08:07:51;100511.63;;;12.88;78.58
36248;BME280;22287;50.824;5.644;2023-03-19T08:10:18;100515.00;;;13.00;78.01
36248;BME280;22287;50.824;5.644;2023-03-19T08:12:45;100515.34;;;12.87;78.11
36248;BME280;22287;50.824;5.644;2023-03-19T08:15:12;100508.31;;;12.94;78.05
36248;BME280;22287;50.824;5.644;2023-03-19T08:17:39;100518.16;;;13.50;76.59
36248;BME280;22287;50.824;5.644;2023-03-19T08:20:10;100514.56;;;13.49;76.28
36248;BME280;22287;50.824;5.644;2023-03-19T08:22:38;100521.16;;;13.65;75.17
36248;BME280;22287;50.824;5.644;2023-03-19T08:25:06;100517.91;;;13.61;75.49
36248;BME280;22287;50.824;5.644;2023-03-19T08:27:33;100519.22;;;13.12;77.37
36248;BME280;22287;50.824;5.644;2023-03-19T08:30:05;100516.19;;;13.60;75.94
36248;BME280;22287;50.824;5.644;2023-03-19T08:32:34;100521.69;;;13.33;78.33
36248;BME280;22287;50.824;5.644;2023-03-19T08:35:03;100524.91;;;13.64;76.33
36248;BME280;22287;50.824;5.644;2023-03-19T08:37:30;100520.00;;;14.02;76.34
36248;BME280;22287;50.824;5.644;2023-03-19T08:39:57;100516.69;;;14.60;73.72
36248;BME280;22287;50.824;5.644;2023-03-19T08:42:24;100520.66;;;14.74;72.78
36248;BME280;22287;50.824;5.644;2023-03-19T08:44:51;100523.53;;;14.72;72.66
36248;BME280;22287;50.824;5.644;2023-03-19T08:47:17;100527.91;;;14.65;72.42
36248;BME280;22287;50.824;5.644;2023-03-19T08:49:45;100530.56;;;14.49;73.03
36248;BME280;22287;50.824;5.644;2023-03-19T08:52:12;100535.00;;;14.84;71.62
36248;BME280;22287;50.824;5.644;2023-03-19T08:54:39;100533.28;;;14.49;74.14
36248;BME280;22287;50.824;5.644;2023-03-19T08:57:06;100539.75;;;14.56;73.06
36248;BME280;22287;50.824;5.644;2023-03-19T08:59:33;100541.88;;;14.70;74.36
36248;BME280;22287;50.824;5.644;2023-03-19T09:02:00;100544.13;;;15.08;72.68
36248;BME280;22287;50.824;5.644;2023-03-19T09:04:27;100550.50;;;14.57;72.64
36248;BME280;22287;50.824;5.644;2023-03-19T09:06:55;100552.13;;;14.50;72.60
36248;BME280;22287;50.824;5.644;2023-03-19T09:09:23;100547.28;;;14.19;73.28
36248;BME280;22287;50.824;5.644;2023-03-19T09:11:50;100549.41;;;14.07;75.88
36248;BME280;22287;50.824;5.644;2023-03-19T09:14:17;100553.66;;;14.09;72.75
36248;BME280;22287;50.824;5.644;2023-03-19T09:16:46;100558.56;;;14.41;72.69
36248;BME280;22287;50.824;5.644;2023-03-19T09:19:13;100560.78;;;14.46;72.07
36248;BME280;22287;50.824;5.644;2023-03-19T09:21:40;100557.91;;;14.30;72.34
36248;BME280;22287;50.824;5.644;2023-03-19T09:24:07;100561.41;;;14.91;70.95
36248;BME280;22287;50.824;5.644;2023-03-19T09:26:34;100561.22;;;14.33;71.87
36248;BME280;22287;50.824;5.644;2023-03-19T09:29:00;100563.81;;;15.02;70.79
36248;BME280;22287;50.824;5.644;2023-03-19T09:31:28;100566.38;;;14.27;72.17
36248;BME280;22287;50.824;5.644;2023-03-19T09:33:55;100565.53;;;14.26;73.06
36248;BME280;22287;50.824;5.644;2023-03-19T09:36:23;100566.63;;;14.59;72.26
36248;BME280;22287;50.824;5.644;2023-03-19T09:38:50;100571.22;;;14.33;71.35
36248;BME280;22287;50.824;5.644;2023-03-19T09:46:48;100578.28;;;14.43;71.67
36248;BME280;22287;50.824;5.644;2023-03-19T09:49:24;100582.38;;;14.30;72.36
36248;BME280;22287;50.824;5.644;2023-03-19T09:52:00;100582.38;;;14.30;72.44
36248;BME280;22287;50.824;5.644;2023-03-19T09:54:48;100579.66;;;14.12;73.34
36248;BME280;22287;50.824;5.644;2023-03-19T09:57:18;100583.31;;;14.21;72.91
36248;BME280;22287;50.824;5.644;2023-03-19T09:59:46;100573.91;;;14.15;72.56
36248;BME280;22287;50.824;5.644;2023-03-19T10:07:46;100585.16;;;13.49;73.50
36248;BME280;22287;50.824;5.644;2023-03-19T10:10:37;100576.47;;;13.46;73.45
36248;BME280;22287;50.824;5.644;2023-03-19T10:15:54;100588.16;;;13.91;71.64
36248;BME280;22287;50.824;5.644;2023-03-19T10:18:27;100604.59;;;14.07;71.65
36248;BME280;22287;50.824;5.644;2023-03-19T10:21:02;100607.16;;;13.91;72.31
36248;BME280;22287;50.824;5.644;2023-03-19T10:26:21;100596.88;;;13.50;74.13
36248;BME280;22287;50.824;5.644;2023-03-19T10:29:01;100599.81;;;13.39;75.37
36248;BME280;22287;50.824;5.644;2023-03-19T10:31:43;100598.00;;;13.30;75.86
36248;BME280;22287;50.824;5.644;2023-03-19T10:36:48;100607.66;;;13.42;75.61
36248;BME280;22287;50.824;5.644;2023-03-19T10:39:15;100608.66;;;13.41;76.39
36248;BME280;22287;50.824;5.644;2023-03-19T10:42:19;100611.94;;;13.62;75.72
36248;BME280;22287;50.824;5.644;2023-03-19T10:44:49;100611.06;;;13.62;75.86
36248;BME280;22287;50.824;5.644;2023-03-19T10:47:17;100615.25;;;13.56;75.74
36248;BME280;22287;50.824;5.644;2023-03-19T10:49:45;100612.50;;;13.66;75.61
36248;BME280;22287;50.824;5.644;2023-03-19T10:52:23;100614.91;;;13.69;76.04
36248;BME280;22287;50.824;5.644;2023-03-19T10:55:01;100613.38;;;14.19;74.95
36248;BME280;22287;50.824;5.644;2023-03-19T10:57:29;100618.72;;;14.29;74.81
36248;BME280;22287;50.824;5.644;2023-03-19T11:00:03;100618.09;;;13.64;75.97
36248;BME280;22287;50.824;5.644;2023-03-19T11:02:34;100625.53;;;13.97;75.86
36248;BME280;22287;50.824;5.644;2023-03-19T11:05:28;100624.25;;;14.01;75.77
36248;BME280;22287;50.824;5.644;2023-03-19T11:08:00;100625.63;;;14.23;75.28
36248;BME280;22287;50.824;5.644;2023-03-19T11:10:31;100621.22;;;14.40;73.67
36248;BME280;22287;50.824;5.644;2023-03-19T11:13:21;100628.75;;;14.46;75.40
36248;BME280;22287;50.824;5.644;2023-03-19T11:15:51;100621.34;;;14.56;73.03
36248;BME280;22287;50.824;5.644;2023-03-19T11:18:21;100628.94;;;14.96;71.30
36248;BME280;22287;50.824;5.644;2023-03-19T11:20:54;100623.28;;;15.15;68.94
36248;BME280;22287;50.824;5.644;2023-03-19T11:23:26;100629.91;;;14.87;69.92
36248;BME280;22287;50.824;5.644;2023-03-19T11:25:55;100627.72;;;14.64;71.07
36248;BME280;22287;50.824;5.644;2023-03-19T11:28:24;100628.72;;;15.15;68.17
36248;BME280;22287;50.824;5.644;2023-03-19T11:31:10;100623.38;;;15.05;68.80
36248;BME280;22287;50.824;5.644;2023-03-19T11:44:31;100617.56;;;15.60;68.34
36248;BME280;22287;50.824;5.644;2023-03-19T11:47:06;100617.94;;;15.39;68.92
36248;BME280;22287;50.824;5.644;2023-03-19T11:50:11;100609.81;;;16.13;67.03
36248;BME280;22287;50.824;5.644;2023-03-19T11:53:10;100616.97;;;16.22;66.47
36248;BME280;22287;50.824;5.644;2023-03-19T11:55:50;100617.59;;;15.76;64.92
36248;BME280;22287;50.824;5.644;2023-03-19T12:07:03;100600.09;;;16.83;63.44
36248;BME280;22287;50.824;5.644;2023-03-19T12:15:05;100603.19;;;17.35;61.98
36248;BME280;22287;50.824;5.644;2023-03-19T12:20:26;100599.06;;;15.88;63.84
36248;BME280;22287;50.824;5.644;2023-03-19T12:25:41;100605.81;;;15.34;65.74
36248;BME280;22287;50.824;5.644;2023-03-19T12:28:22;100601.19;;;15.52;66.67
36248;BME280;22287;50.824;5.644;2023-03-19T12:34:38;100598.22;;;16.35;64.96
36248;BME280;22287;50.824;5.644;2023-03-19T12:37:17;100599.13;;;15.54;66.23
36248;BME280;22287;50.824;5.644;2023-03-19T12:39:53;100594.72;;;15.69;67.76
36248;BME280;22287;50.824;5.644;2023-03-19T12:42:27;100591.84;;;15.62;65.53
36248;BME280;22287;50.824;5.644;2023-03-19T12:44:56;100594.09;;;15.83;64.20
36248;BME280;22287;50.824;5.644;2023-03-19T12:47:30;100602.28;;;15.91;64.67
36248;BME280;22287;50.824;5.644;2023-03-19T12:50:02;100607.00;;;15.31;65.40
36248;BME280;22287;50.824;5.644;2023-03-19T12:52:41;100606.22;;;15.05;65.00
36248;BME280;22287;50.824;5.644;2023-03-19T12:55:17;100601.59;;;15.05;66.84
36248;BME280;22287;50.824;5.644;2023-03-19T12:57:52;100603.34;;;15.14;67.13
36248;BME280;22287;50.824;5.644;2023-03-19T13:00:27;100612.06;;;14.92;67.15
36248;BME280;22287;50.824;5.644;2023-03-19T13:03:15;100611.16;;;15.09;70.05
36248;BME280;22287;50.824;5.644;2023-03-19T13:10:58;100613.16;;;15.83;66.44
36248;BME280;22287;50.824;5.644;2023-03-19T13:13:41;100619.66;;;15.82;65.71
36248;BME280;22287;50.824;5.644;2023-03-19T13:19:44;100622.47;;;15.56;66.05
36248;BME280;22287;50.824;5.644;2023-03-19T13:22:16;100618.44;;;15.01;68.21
36248;BME280;22287;50.824;5.644;2023-03-19T13:24:45;100618.88;;;14.27;69.39
36248;BME280;22287;50.824;5.644;2023-03-19T13:27:29;100616.28;;;14.87;67.59
36248;BME280;22287;50.824;5.644;2023-03-19T13:32:35;100623.94;;;14.22;68.95
36248;BME280;22287;50.824;5.644;2023-03-19T13:37:58;100625.94;;;14.20;68.17
36248;BME280;22287;50.824;5.644;2023-03-19T13:48:48;100624.44;;;14.61;68.28
36248;BME280;22287;50.824;5.644;2023-03-19T13:59:31;100623.56;;;14.52;68.82
36248;BME280;22287;50.824;5.644;2023-03-19T14:02:00;100630.53;;;14.81;68.10
36248;BME280;22287;50.824;5.644;2023-03-19T14:04:32;100633.69;;;14.68;67.66
36248;BME280;22287;50.824;5.644;2023-03-19T14:09:39;100639.56;;;14.38;68.89
36248;BME280;22287;50.824;5.644;2023-03-19T14:12:29;100649.75;;;14.36;68.74
36248;BME280;22287;50.824;5.644;2023-03-19T14:15:23;100648.78;;;14.27;69.17
36248;BME280;22287;50.824;5.644;2023-03-19T14:18:00;100655.84;;;14.02;69.79
36248;BME280;22287;50.824;5.644;2023-03-19T14:20:32;100649.63;;;14.89;67.98
36248;BME280;22287;50.824;5.644;2023-03-19T14:26:01;100655.34;;;14.52;67.99
36248;BME280;22287;50.824;5.644;2023-03-19T14:28:44;100655.25;;;14.44;69.06
36248;BME280;22287;50.824;5.644;2023-03-19T14:31:19;100657.13;;;15.12;67.23
36248;BME280;22287;50.824;5.644;2023-03-19T14:34:06;100658.03;;;14.95;67.29
36248;BME280;22287;50.824;5.644;2023-03-19T14:36:43;100659.59;;;14.37;69.03
36248;BME280;22287;50.824;5.644;2023-03-19T14:39:23;100660.38;;;14.90;67.17
36248;BME280;22287;50.824;5.644;2023-03-19T14:42:30;100656.31;;;14.68;66.65
36248;BME280;22287;50.824;5.644;2023-03-19T14:53:13;100656.25;;;14.86;66.49
36248;BME280;22287;50.824;5.644;2023-03-19T14:55:48;100657.94;;;15.39;65.90
36248;BME280;22287;50.824;5.644;2023-03-19T14:58:18;100653.34;;;15.39;65.49